Terminal Aerodrome Forecast
Issued by NWS Sterling, VA

Current Version | Previous Version | Text Only | Print | Product List | Glossary Off
Versions: 1 2 3 4 5 6 7 8 9 10 11 12 13 14 15 16 17 18 19 20 21

000
FTUS41 KLWX 211122
TAFDCA
TAF
KDCA 211122Z 2112/2212 11005KT P6SM OVC050
     FM211800 14009G15KT P6SM BKN045
     FM220300 14008KT P6SM OVC025
     FM220600 14006KT 4SM -RA OVC010=

USA.gov is the U.S. government's official web portal to all federal, state and local government web resources and services.